Naukati Bay, Alaska
Current Conditions -  °F | °C
As of 11:53 AM on Sunday 23 Nov 2014 (Local Time) from PAKT Reporting Station
Overcast Overcast  
Wind Chill: 41°   Ceiling: 1000
Heat Index: 44°   Visibility: 10mi
Dew Point: 41°   Wind: 6mph
Humidity: 89%   Direction: 130°SE
Pressure: 29.86"   Gusts: NA
Location:  55.5909°N, 131.349°W
Report Text: PAKT 232053Z 13005KT 10SM BKN010 OVC025 07/05 A2986 RMK AO2 SLP111 T00670050 51031
Loading
Personal Weather Stations






























Interactive Weather Map New forecast layout! Learn more

10-Day Weather Forecast

Advertisements
Track Severe Weather on mobile